Time;durP1;ratioP1;P1;durP2;ratioP2;P2;SDS_P1;SDS_P2;PMS_P1;PMS_P2;Temp;Humidity;BMP_temperature;BMP_pressure;BME280_temperature;BME280_humidity;BME280_pressure;Samples;Min_cycle;Max_cycle;Signal;HPM_P1;HPM_P2
2022/09/12 00:01:23;;;;;;;5.88;3.83;;;;;;;17.33;100.00;96518.84;5007893;28;20207;-72
2022/09/12 00:03:55;;;;;;;6.82;4.63;;;;;;;17.61;100.00;96584.78;5006012;28;20521;-74
2022/09/12 00:06:25;;;;;;;6.63;4.65;;;;;;;17.62;100.00;96591.97;5008013;28;20082;-73
2022/09/12 00:08:58;;;;;;;5.55;4.35;;;;;;;17.19;100.00;96523.88;5008150;28;20103;-73
2022/09/12 00:11:25;;;;;;;6.63;4.72;;;;;;;16.23;100.00;96412.72;5006562;28;20618;-73
2022/09/12 00:13:57;;;;;;;6.00;5.00;;;;;;;17.02;100.00;96544.56;5006799;28;20089;-73
2022/09/12 00:16:26;;;;;;;7.13;5.65;;;;;;;17.41;100.00;96592.31;5008078;28;20066;-74
2022/09/12 00:18:53;;;;;;;12.20;5.82;;;;;;;17.11;100.00;96548.41;5007673;28;20432;-73
2022/09/12 00:21:21;;;;;;;6.85;4.90;;;;;;;17.09;100.00;96553.63;5006123;28;20081;-74
2022/09/12 00:23:48;;;;;;;8.55;5.28;;;;;;;17.09;100.00;96578.03;5007273;28;20523;-74
2022/09/12 00:26:16;;;;;;;11.68;5.80;;;;;;;16.92;100.00;96548.31;5012364;28;20154;-74
2022/09/12 00:28:44;;;;;;;9.07;5.70;;;;;;;16.98;100.00;96581.00;5027011;28;21725;-72
2022/09/12 00:31:14;;;;;;;15.20;6.30;;;;;;;17.02;100.00;96580.94;5026990;28;20223;-73
2022/09/12 00:33:41;;;;;;;18.95;8.50;;;;;;;16.89;100.00;96569.56;5025991;28;20904;-73
2022/09/12 00:36:15;;;;;;;13.45;8.05;;;;;;;17.02;100.00;96558.56;5025659;28;20532;-72
2022/09/12 00:38:42;;;;;;;10.27;7.43;;;;;;;17.11;100.00;96550.41;5027448;28;20150;-72
2022/09/12 00:41:21;;;;;;;12.35;7.38;;;;;;;16.51;100.00;96457.06;5025487;28;20049;-73
2022/09/12 00:43:54;;;;;;;10.32;7.72;;;;;;;17.08;100.00;96554.06;5025416;28;20160;-72
2022/09/12 00:46:44;;;;;;;8.00;7.07;;;;;;;17.11;100.00;96539.22;5026847;28;20054;-70
2022/09/12 00:49:14;;;;;;;9.18;7.18;;;;;;;17.07;100.00;96535.69;5026509;28;20429;-69
2022/09/12 00:51:45;;;;;;;11.88;7.28;;;;;;;17.04;100.00;96536.56;5026808;28;20053;-72
2022/09/12 00:54:17;;;;;;;8.10;6.75;;;;;;;17.01;100.00;96551.41;5026936;28;20364;-73
2022/09/12 00:56:46;;;;;;;9.85;6.63;;;;;;;17.04;100.00;96572.94;5026649;28;20100;-70
2022/09/12 00:59:21;;;;;;;7.68;5.72;;;;;;;16.89;100.00;96577.94;5026474;28;20079;-73
2022/09/12 01:01:49;;;;;;;10.45;5.97;;;;;;;16.84;100.00;96569.22;5025524;28;20593;-73
2022/09/12 01:04:20;;;;;;;6.65;5.60;;;;;;;16.80;100.00;96571.28;5025479;28;20128;-72
2022/09/12 01:06:48;;;;;;;8.25;6.18;;;;;;;16.83;100.00;96576.84;5027168;28;20124;-72
2022/09/12 01:09:18;;;;;;;9.35;7.45;;;;;;;16.80;100.00;96568.50;5025502;28;20192;-71
2022/09/12 01:11:47;;;;;;;20.83;7.78;;;;;;;16.81;100.00;96581.25;5026555;28;20103;-72
2022/09/12 01:14:15;;;;;;;11.95;7.45;;;;;;;16.78;100.00;96582.91;5024823;28;20463;-71
2022/09/12 01:16:44;;;;;;;12.52;7.35;;;;;;;16.76;100.00;96584.53;5026421;28;20168;-70
2022/09/12 01:19:48;;;;;;;8.40;6.78;;;;;;;16.76;100.00;96562.16;5026369;28;20590;-72
2022/09/12 01:22:53;;;;;;;9.85;7.63;;;;;;;16.83;100.00;96567.66;5026431;28;20158;-72
2022/09/12 01:26:13;;;;;;;9.48;7.53;;;;;;;16.78;100.00;96548.53;5024553;28;20144;-71
2022/09/12 01:28:46;;;;;;;11.05;7.53;;;;;;;16.90;100.00;96547.97;4945054;29;20534;-71
2022/09/12 01:31:23;;;;;;;10.48;7.82;;;;;;;16.81;100.00;96526.13;4980104;28;20051;-71
2022/09/12 01:34:09;;;;;;;11.13;6.95;;;;;;;16.96;100.00;96549.06;4986987;28;20054;-72
2022/09/12 01:36:56;;;;;;;12.13;7.72;;;;;;;16.94;100.00;96552.28;4986974;28;20145;-71
2022/09/12 01:39:53;;;;;;;14.07;7.65;;;;;;;16.82;100.00;96549.28;4984326;28;20575;-71
2022/09/12 01:42:29;;;;;;;10.30;6.82;;;;;;;16.81;100.00;96547.69;4986089;28;20058;-71
2022/09/12 01:45:02;;;;;;;11.25;7.72;;;;;;;16.77;100.00;96541.38;4986564;28;20554;-73
2022/09/12 01:47:46;;;;;;;8.85;7.53;;;;;;;16.74;100.00;96529.00;4985169;28;20085;-73
2022/09/12 01:50:18;;;;;;;11.93;7.18;;;;;;;16.86;100.00;96544.41;4986731;28;20076;-71
2022/09/12 01:53:03;;;;;;;19.60;7.25;;;;;;;16.53;100.00;96499.34;4986708;28;20083;-72
2022/09/12 01:55:36;;;;;;;9.52;6.57;;;;;;;16.34;100.00;96541.94;4984716;28;20580;-71
2022/09/12 01:58:05;;;;;;;7.43;6.40;;;;;;;16.31;100.00;96537.19;4986589;28;20581;-72
2022/09/12 02:00:36;;;;;;;9.02;6.38;;;;;;;16.15;100.00;96511.88;4986386;28;20054;-72
2022/09/12 02:03:38;;;;;;;12.40;7.68;;;;;;;16.48;100.00;96538.19;4985032;28;20161;-69
2022/09/12 02:06:09;;;;;;;9.70;7.53;;;;;;;16.49;100.00;96537.78;4976173;28;20169;-73
2022/09/12 02:08:51;;;;;;;8.98;7.38;;;;;;;16.46;100.00;96533.03;4984720;28;20105;-71
2022/09/12 02:11:19;;;;;;;11.80;7.70;;;;;;;15.99;100.00;96503.31;4986010;28;20615;-72
2022/09/12 02:13:54;;;;;;;11.65;7.78;;;;;;;15.68;100.00;96540.75;4984636;28;20438;-71
2022/09/12 02:16:41;;;;;;;14.25;8.85;;;;;;;15.56;100.00;96537.72;4985667;28;20525;-73
2022/09/12 02:19:15;;;;;;;14.88;9.65;;;;;;;15.57;100.00;96514.19;4984606;28;20061;-73
2022/09/12 02:21:49;;;;;;;13.52;9.98;;;;;;;15.78;100.00;96537.06;4984718;28;20082;-73
2022/09/12 02:24:19;;;;;;;20.25;10.23;;;;;;;15.88;100.00;96529.78;4985274;28;20165;-72
2022/09/12 02:26:51;;;;;;;15.57;9.75;;;;;;;15.74;100.00;96502.81;5002992;28;20135;-72
2022/09/12 02:29:18;;;;;;;15.27;9.80;;;;;;;16.04;100.00;96533.56;5024727;28;20111;-71
2022/09/12 02:31:58;;;;;;;12.23;9.88;;;;;;;15.54;100.00;96459.97;5024867;28;20521;-72
2022/09/12 02:34:49;;;;;;;11.18;8.10;;;;;;;16.02;100.00;96524.00;5023520;28;20491;-72
2022/09/12 02:37:26;;;;;;;13.52;8.45;;;;;;;15.99;100.00;96520.06;5023365;28;20500;-72
2022/09/12 02:39:55;;;;;;;11.98;8.23;;;;;;;15.70;100.00;96485.31;5025140;28;20111;-71
2022/09/12 02:42:23;;;;;;;13.10;9.02;;;;;;;14.35;100.00;96260.47;5025040;28;20057;-72
2022/09/12 02:44:52;;;;;;;12.07;8.20;;;;;;;16.02;100.00;96529.59;5025046;28;20132;-71
2022/09/12 02:47:35;;;;;;;14.05;8.45;;;;;;;16.11;100.00;96527.06;5023492;28;20132;-71
2022/09/12 02:50:04;;;;;;;14.52;8.50;;;;;;;15.75;100.00;96504.41;5025220;28;20160;-71
2022/09/12 02:52:31;;;;;;;13.85;8.73;;;;;;;15.80;100.00;96515.09;5023238;28;20487;-71
2022/09/12 02:54:58;;;;;;;9.40;7.60;;;;;;;15.24;100.00;96412.44;5025050;28;20144;-69
2022/09/12 02:57:25;;;;;;;12.07;8.38;;;;;;;15.94;100.00;96511.34;5024561;28;20555;-71
2022/09/12 02:59:55;;;;;;;12.23;8.55;;;;;;;15.46;100.00;96447.28;5024842;28;20085;-71
2022/09/12 03:02:41;;;;;;;10.63;8.57;;;;;;;15.88;100.00;96510.22;5024597;28;20112;-72
2022/09/12 03:05:42;;;;;;;10.32;7.90;;;;;;;15.77;100.00;96501.19;5024741;28;20548;-72
2022/09/12 03:08:18;;;;;;;9.73;7.32;;;;;;;15.53;100.00;96475.13;5017532;28;20544;-72
2022/09/12 03:10:58;;;;;;;11.10;7.63;;;;;;;15.70;100.00;96496.47;5024642;28;20049;-71
2022/09/12 03:13:27;;;;;;;9.63;6.60;;;;;;;15.69;100.00;96499.69;5024636;28;20053;-72
2022/09/12 03:16:17;;;;;;;8.10;7.03;;;;;;;15.48;100.00;96500.72;5024629;28;20557;-71
2022/09/12 03:19:07;;;;;;;12.85;7.63;;;;;;;15.42;100.00;96524.72;5024663;28;20060;-72
2022/09/12 03:22:05;;;;;;;10.30;6.68;;;;;;;15.23;100.00;96500.16;5024716;28;20108;-72
2022/09/12 03:24:36;;;;;;;14.35;7.22;;;;;;;15.13;100.00;96501.03;5024313;28;20141;-71
2022/09/12 03:27:16;;;;;;;9.32;6.78;;;;;;;15.17;100.00;96508.16;5013702;28;20058;-70
2022/09/12 03:29:46;;;;;;;9.55;6.10;;;;;;;15.12;100.00;96505.03;5002997;28;20058;-71
2022/09/12 03:32:14;;;;;;;9.75;6.65;;;;;;;14.51;100.00;96408.41;5003300;28;20078;-70
2022/09/12 03:34:40;;;;;;;8.32;6.22;;;;;;;15.02;100.00;96503.94;5004594;28;20526;-71
2022/09/12 03:37:07;;;;;;;12.98;7.15;;;;;;;14.81;100.00;96478.25;5004369;28;20504;-71
2022/09/12 03:39:34;;;;;;;8.13;6.90;;;;;;;14.88;100.00;96490.13;5003016;28;20168;-74
2022/09/12 03:42:00;;;;;;;11.73;7.13;;;;;;;14.35;100.00;96477.78;5004579;28;20119;-72
2022/09/12 03:44:27;;;;;;;14.93;7.75;;;;;;;12.70;100.00;96179.00;5004384;28;20089;-70
2022/09/12 03:46:54;;;;;;;9.18;6.75;;;;;;;14.88;100.00;96528.34;5003032;28;20125;-71
2022/09/12 03:49:20;;;;;;;11.75;7.47;;;;;;;14.19;100.00;96413.41;5004467;28;20058;-70
2022/09/12 03:51:47;;;;;;;11.25;7.70;;;;;;;14.85;100.00;96529.19;5002748;28;20095;-71
2022/09/12 03:54:13;;;;;;;12.75;7.18;;;;;;;14.88;100.00;96517.19;5004357;28;20145;-70
2022/09/12 03:56:40;;;;;;;8.45;6.38;;;;;;;14.77;100.00;96527.66;5003913;28;20145;-71
2022/09/12 03:59:07;;;;;;;11.95;8.15;;;;;;;13.33;100.00;96323.28;5004293;28;20143;-70
2022/09/12 04:01:34;;;;;;;13.23;8.65;;;;;;;14.31;100.00;96485.38;5003521;28;20123;-69
2022/09/12 04:04:01;;;;;;;12.60;8.15;;;;;;;14.65;100.00;96519.78;5007944;28;20163;-71
2022/09/12 04:06:28;;;;;;;14.88;9.07;;;;;;;14.73;100.00;96521.31;5007803;28;20062;-71
2022/09/12 04:08:55;;;;;;;16.58;7.53;;;;;;;14.72;100.00;96525.28;5006419;28;20087;-71
2022/09/12 04:11:22;;;;;;;9.80;7.63;;;;;;;14.29;100.00;96451.56;5006316;28;20140;-69
2022/09/12 04:13:49;;;;;;;13.32;6.63;;;;;;;14.76;100.00;96528.84;5007313;28;20085;-71
2022/09/12 04:16:16;;;;;;;9.68;5.88;;;;;;;14.11;100.00;96428.56;5007678;28;20053;-70
2022/09/12 04:18:44;;;;;;;10.90;5.80;;;;;;;14.62;100.00;96509.44;5007558;28;20054;-70
2022/09/12 04:21:20;;;;;;;10.02;6.55;;;;;;;14.15;100.00;96460.75;5007433;28;20050;-71
2022/09/12 04:23:47;;;;;;;9.38;6.80;;;;;;;14.61;100.00;96530.94;5007579;28;20080;-71
2022/09/12 04:26:16;;;;;;;11.55;7.28;;;;;;;14.56;100.00;96533.34;5009188;28;20073;-69
2022/09/12 04:28:44;;;;;;;10.27;7.53;;;;;;;14.71;100.00;96530.09;5027166;28;20465;-71
2022/09/12 04:31:16;;;;;;;8.55;6.18;;;;;;;14.07;100.00;96439.72;5025286;28;20053;-71
2022/09/12 04:33:44;;;;;;;7.18;5.70;;;;;;;14.57;100.00;96541.34;5025873;28;20428;-71
2022/09/12 04:36:15;;;;;;;8.45;5.55;;;;;;;13.95;100.00;96442.19;5026647;28;20119;-70
2022/09/12 04:38:43;;;;;;;8.30;6.15;;;;;;;14.66;100.00;96543.66;5027071;28;20045;-70
2022/09/12 04:41:16;;;;;;;6.18;5.55;;;;;;;14.58;100.00;96522.59;5026796;28;20131;-72
2022/09/12 04:43:45;;;;;;;7.90;5.25;;;;;;;14.77;100.00;96538.78;5026970;28;20129;-70
2022/09/12 04:46:14;;;;;;;9.27;5.45;;;;;;;14.90;100.00;96525.94;5025282;28;20149;-71
2022/09/12 04:48:42;;;;;;;5.53;4.57;;;;;;;14.53;100.00;96472.88;5026624;28;20053;-69
2022/09/12 04:51:15;;;;;;;9.32;4.40;;;;;;;15.05;100.00;96539.38;5025195;28;20578;-72
2022/09/12 04:53:46;;;;;;;5.45;3.95;;;;;;;14.77;100.00;96495.00;5026702;28;20057;-71
2022/09/12 04:56:13;;;;;;;5.78;4.00;;;;;;;15.02;100.00;96500.34;5024937;28;20154;-70
2022/09/12 04:58:39;;;;;;;8.38;3.80;;;;;;;15.50;100.00;96548.56;5025252;28;20503;-71
2022/09/12 05:01:15;;;;;;;4.57;3.88;;;;;;;15.28;100.00;96485.75;5024870;28;20590;-70
2022/09/12 05:03:43;;;;;;;5.93;3.55;;;;;;;15.41;100.00;96495.22;5026460;28;20492;-72
2022/09/12 05:06:22;;;;;;;7.85;3.67;;;;;;;15.47;100.00;96504.72;5026260;28;20065;-72
2022/09/12 05:08:50;;;;;;;4.40;4.00;;;;;;;15.71;100.00;96520.38;5024996;28;20077;-71
2022/09/12 05:11:20;;;;;;;4.32;3.45;;;;;;;15.97;100.00;96547.63;5025119;28;20057;-71
2022/09/12 05:13:50;;;;;;;3.50;3.20;;;;;;;15.79;100.00;96498.78;5025222;28;20500;-71
2022/09/12 05:16:18;;;;;;;4.05;3.65;;;;;;;16.28;100.00;96549.22;5025766;28;20053;-69
2022/09/12 05:18:45;;;;;;;8.48;3.45;;;;;;;16.35;100.00;96543.53;5024670;28;20452;-72
2022/09/12 05:21:15;;;;;;;7.68;3.40;;;;;;;16.04;100.00;96465.72;5024425;28;20535;-75
2022/09/12 05:23:42;;;;;;;6.28;3.47;;;;;;;16.51;100.00;96526.97;5024508;28;20733;-72
2022/09/12 05:26:15;;;;;;;5.72;2.85;;;;;;;16.38;100.00;96491.56;5023365;28;20053;-72
2022/09/12 05:28:42;;;;;;;3.47;3.17;;;;;;;16.84;100.00;96530.88;5004985;28;20077;-72
2022/09/12 05:31:12;;;;;;;5.57;2.63;;;;;;;16.83;100.00;96528.50;5006066;28;20060;-72
2022/09/12 05:33:41;;;;;;;3.30;2.72;;;;;;;16.96;100.00;96537.88;5004427;28;20136;-71
2022/09/12 05:36:12;;;;;;;3.88;2.15;;;;;;;17.02;99.51;96542.56;5006042;28;20203;-71
2022/09/12 05:38:38;;;;;;;3.85;2.38;;;;;;;16.25;98.30;96399.13;5006106;28;20062;-71
2022/09/12 05:41:17;;;;;;;5.93;2.35;;;;;;;16.54;97.14;96433.84;5001417;28;20077;-63
2022/09/12 05:43:54;;;;;;;3.95;2.20;;;;;;;17.38;97.16;96542.75;5018466;28;20053;-62
2022/09/12 05:46:25;;;;;;;3.70;2.20;;;;;;;17.59;95.36;96553.63;5005564;28;20152;-60
2022/09/12 05:48:53;;;;;;;4.13;2.00;;;;;;;17.30;94.71;96488.91;5021269;28;20085;-66
2022/09/12 05:51:30;;;;;;;4.13;2.25;;;;;;;16.95;93.49;96391.59;5006719;28;20050;-62
2022/09/12 05:53:59;;;;;;;4.20;1.90;;;;;;;18.04;85.90;96546.31;5005309;28;20088;-63
2022/09/12 05:56:27;;;;;;;3.00;2.00;;;;;;;18.21;88.08;96564.78;5005833;28;20132;-60
2022/09/12 05:58:57;;;;;;;1.77;1.50;;;;;;;18.31;86.22;96521.72;5003654;28;20089;-62
2022/09/12 06:01:25;;;;;;;2.20;1.60;;;;;;;18.24;83.74;96485.41;5025078;28;20106;-61
2022/09/12 06:03:54;;;;;;;1.55;1.45;;;;;;;18.86;82.15;96532.94;5014036;28;20223;-60
2022/09/12 06:06:24;;;;;;;2.50;1.80;;;;;;;19.09;81.22;96541.22;5005242;28;20659;-60
2022/09/12 06:08:52;;;;;;;4.53;2.00;;;;;;;18.30;80.48;96408.00;5002968;28;20109;-59
2022/09/12 06:11:21;;;;;;;1.98;1.50;;;;;;;19.41;80.80;96543.25;5004866;28;20096;-61
2022/09/12 06:13:49;;;;;;;3.50;1.63;;;;;;;18.85;78.39;96458.38;5004711;28;20139;-70
2022/09/12 06:16:18;;;;;;;3.45;1.50;;;;;;;19.45;77.96;96550.34;5005216;28;20053;-62
2022/09/12 06:18:52;;;;;;;2.88;1.60;;;;;;;19.64;78.14;96540.22;5004573;28;20134;-66
2022/09/12 06:21:20;;;;;;;3.35;1.50;;;;;;;19.58;72.55;96497.81;5004646;28;20045;-61
2022/09/12 06:23:48;;;;;;;5.00;1.40;;;;;;;20.03;74.37;96544.81;5005048;28;20081;-67
2022/09/12 06:26:16;;;;;;;3.90;1.83;;;;;;;18.73;74.28;96330.00;5004952;28;20632;-70
2022/09/12 06:28:44;;;;;;;1.40;1.30;;;;;;;20.19;74.47;96525.06;5004573;28;20061;-69
2022/09/12 06:31:14;;;;;;;1.65;1.40;;;;;;;20.24;75.63;96532.97;5005378;28;20065;-69
2022/09/12 06:33:43;;;;;;;5.90;1.60;;;;;;;20.19;74.11;96531.47;5004087;28;20590;-66
2022/09/12 06:36:14;;;;;;;1.58;1.48;;;;;;;18.49;73.52;96230.47;5004522;28;20420;-72
2022/09/12 06:38:42;;;;;;;2.05;1.50;;;;;;;20.00;69.61;96447.25;5004797;28;20809;-65
2022/09/12 06:41:11;;;;;;;2.53;1.48;;;;;;;20.41;72.00;96526.00;4995204;28;20057;-63
2022/09/12 06:43:39;;;;;;;3.28;1.40;;;;;;;20.26;71.25;96503.16;4986423;28;20062;-64
2022/09/12 06:46:07;;;;;;;8.02;1.73;;;;;;;20.79;70.47;96540.94;5019441;28;20131;-62
2022/09/12 06:48:34;;;;;;;3.05;1.58;;;;;;;20.75;69.63;96545.91;5004529;28;20049;-61
2022/09/12 06:51:13;;;;;;;1.88;1.45;;;;;;;20.81;68.07;96504.69;5004735;28;20050;-61
2022/09/12 06:53:45;;;;;;;2.35;1.30;;;;;;;20.98;63.30;96546.38;5004332;28;20058;-68
2022/09/12 06:56:15;;;;;;;1.50;1.40;;;;;;;20.44;63.09;96468.84;4995989;28;20076;-60
2022/09/12 06:58:42;;;;;;;1.83;1.52;;;;;;;20.92;64.11;96544.56;4987483;28;20058;-61
2022/09/12 07:01:15;;;;;;;2.78;1.20;;;;;;;20.81;63.98;96504.69;5004673;28;20107;-68
2022/09/12 07:03:46;;;;;;;2.65;1.40;;;;;;;21.00;63.38;96506.50;4980160;28;20521;-67
2022/09/12 07:06:14;;;;;;;2.08;1.67;;;;;;;20.19;62.23;96385.22;4996802;28;20428;-65
2022/09/12 07:08:41;;;;;;;2.85;2.30;;;;;;;20.86;60.92;96461.88;5004629;28;20061;-62
2022/09/12 07:11:08;;;;;;;2.80;1.40;;;;;;;21.46;62.06;96539.59;4999669;28;20064;-63
2022/09/12 07:13:34;;;;;;;2.17;2.03;;;;;;;19.71;62.09;96272.28;4984035;28;20050;-62
2022/09/12 07:16:05;;;;;;;4.72;1.92;;;;;;;20.77;61.70;96405.50;5004743;28;20210;-62
2022/09/12 07:18:33;;;;;;;2.85;1.60;;;;;;;21.31;60.79;96524.38;5003089;28;20057;-59
2022/09/12 07:21:03;;;;;;;1.50;1.40;;;;;;;20.19;62.60;96302.88;5003533;28;20057;-66
2022/09/12 07:23:30;;;;;;;3.20;1.27;;;;;;;21.31;60.08;96453.19;5004345;28;20121;-59
2022/09/12 07:25:59;;;;;;;3.05;1.35;;;;;;;21.30;59.93;96460.84;5003594;28;20077;-63
2022/09/12 07:28:27;;;;;;;2.75;1.50;;;;;;;21.97;59.02;96541.03;5003147;28;20054;-66
2022/09/12 07:30:54;;;;;;;1.60;1.50;;;;;;;21.66;58.40;96458.34;5003070;28;20476;-59
2022/09/12 07:33:23;;;;;;;1.70;1.60;;;;;;;22.27;56.67;96545.22;5003271;28;20116;-61
2022/09/12 07:35:52;;;;;;;3.15;2.25;;;;;;;22.10;56.16;96499.47;5004074;28;20132;-62
2022/09/12 07:38:22;;;;;;;2.35;1.58;;;;;;;22.03;56.70;96473.53;5006451;28;20152;-60
2022/09/12 07:40:49;;;;;;;6.57;2.47;;;;;;;22.42;56.06;96503.91;4999578;28;20565;-62
2022/09/12 07:43:15;;;;;;;2.42;1.95;;;;;;;22.57;55.44;96532.41;5006252;28;20096;-59
2022/09/12 07:45:42;;;;;;;2.75;2.17;;;;;;;22.15;54.27;96455.75;5006900;28;20085;-67
2022/09/12 07:48:09;;;;;;;2.55;1.58;;;;;;;22.70;51.81;96535.94;5006831;28;20058;-60
2022/09/12 07:50:35;;;;;;;3.30;2.40;;;;;;;22.60;54.16;96508.91;5007272;28;20081;-65
2022/09/12 07:53:04;;;;;;;2.60;1.67;;;;;;;22.25;52.65;96494.88;5007469;28;20100;-68
2022/09/12 07:55:31;;;;;;;2.33;1.65;;;;;;;22.55;51.72;96495.38;5007136;28;20107;-65
2022/09/12 07:57:57;;;;;;;2.42;1.92;;;;;;;22.39;52.96;96505.63;5006758;28;20133;-62
2022/09/12 08:00:24;;;;;;;9.18;2.70;;;;;;;22.37;54.78;96533.53;5005929;28;20057;-62
2022/09/12 08:02:52;;;;;;;1.42;1.33;;;;;;;22.11;53.15;96501.03;5007874;28;20058;-59
2022/09/12 08:05:19;;;;;;;2.55;2.13;;;;;;;22.48;52.17;96525.44;5007092;28;20049;-62
2022/09/12 08:07:46;;;;;;;2.47;1.30;;;;;;;22.70;52.69;96513.34;5006622;28;20165;-61
2022/09/12 08:10:13;;;;;;;1.80;1.70;;;;;;;21.98;51.26;96412.06;5005841;28;20120;-69
2022/09/12 08:12:39;;;;;;;4.05;2.00;;;;;;;22.88;52.23;96521.91;5006743;28;20108;-65
2022/09/12 08:15:07;;;;;;;2.35;1.60;;;;;;;22.98;51.46;96495.28;5006801;28;20054;-69
2022/09/12 08:17:34;;;;;;;6.18;3.28;;;;;;;23.01;50.94;96488.69;5007392;28;20081;-61
2022/09/12 08:20:01;;;;;;;4.25;2.28;;;;;;;23.19;50.50;96500.06;5007035;28;20099;-65
2022/09/12 08:22:29;;;;;;;1.92;1.50;;;;;;;22.65;49.16;96495.00;5006758;28;20085;-63
2022/09/12 08:24:56;;;;;;;1.98;1.80;;;;;;;23.05;49.05;96489.31;5006885;28;20140;-64
2022/09/12 08:27:22;;;;;;;6.47;3.13;;;;;;;23.32;49.03;96532.63;5006994;28;20070;-63
2022/09/12 08:29:49;;;;;;;2.20;1.70;;;;;;;22.11;49.03;96432.53;5026749;28;20140;-62
2022/09/12 08:32:15;;;;;;;1.67;1.40;;;;;;;22.97;49.76;96510.66;4998740;28;20146;-64
2022/09/12 08:34:42;;;;;;;4.30;2.08;;;;;;;22.76;49.34;96433.22;5005331;28;20054;-62
2022/09/12 08:37:09;;;;;;;2.63;1.63;;;;;;;23.48;48.56;96495.63;5005581;28;20141;-67
2022/09/12 08:39:35;;;;;;;1.40;1.30;;;;;;;23.61;48.64;96462.34;5003880;28;20058;-68
2022/09/12 08:42:05;;;;;;;3.25;1.65;;;;;;;24.09;48.11;96505.91;5001192;28;20411;-62
2022/09/12 08:44:52;;;;;;;2.83;1.30;;;;;;;24.37;42.84;96513.13;4986963;28;20065;-64
2022/09/12 08:47:18;;;;;;;1.52;1.42;;;;;;;24.17;43.83;96501.50;4987567;28;20101;-64
2022/09/12 08:49:57;;;;;;;2.45;1.27;;;;;;;24.21;43.21;96502.13;5000409;28;20088;-62
2022/09/12 08:52:29;;;;;;;1.30;1.20;;;;;;;24.12;44.25;96504.97;5004786;28;20480;-64
2022/09/12 08:54:56;;;;;;;3.20;1.20;;;;;;;23.81;43.67;96461.84;4994201;28;20080;-64
2022/09/12 08:57:23;;;;;;;1.17;1.08;;;;;;;23.81;43.64;96439.22;5006397;28;20096;-65
2022/09/12 08:59:51;;;;;;;1.20;1.20;;;;;;;24.23;43.35;96465.66;5004507;28;20050;-63
2022/09/12 09:02:44;;;;;;;1.23;1.13;;;;;;;24.74;43.50;96497.63;5001785;28;20414;-69
2022/09/12 09:05:24;;;;;;;1.73;1.23;;;;;;;24.46;43.73;96450.81;5004895;28;20057;-64
2022/09/12 09:07:59;;;;;;;1.52;1.42;;;;;;;24.76;42.78;96497.16;5003838;28;20144;-65
2022/09/12 09:10:33;;;;;;;1.20;1.20;;;;;;;23.92;43.20;96388.59;5005854;28;20103;-65
2022/09/12 09:14:46;;;;;;;1.88;1.70;;;;;;;24.80;41.14;96497.78;5004820;28;20138;-63
2022/09/12 09:16:12;;;;;;;1.33;1.20;;;;;;;24.53;39.68;96504.25;5006262;28;20127;-63
2022/09/12 09:18:41;;;;;;;6.32;1.52;;;;;;;24.26;42.51;96498.66;5005418;28;20128;-61
2022/09/12 09:21:19;;;;;;;1.15;1.15;;;;;;;24.10;41.13;96467.84;5005797;28;20057;-61
2022/09/12 09:23:54;;;;;;;1.27;1.25;;;;;;;24.32;41.53;96502.44;5006400;28;20133;-62
2022/09/12 09:26:29;;;;;;;1.30;1.20;;;;;;;24.43;41.89;96496.28;5004141;28;20584;-64
2022/09/12 09:29:06;;;;;;;1.13;1.13;;;;;;;24.54;41.44;96496.56;5006278;28;20192;-60
2022/09/12 09:31:37;;;;;;;2.70;1.52;;;;;;;22.90;41.09;96248.25;5004884;28;20153;-59
2022/09/12 09:34:21;;;;;;;1.60;1.30;;;;;;;23.89;41.82;96356.41;5005570;28;20108;-64
2022/09/12 09:37:19;;;;;;;2.78;1.50;;;;;;;24.81;41.74;96483.16;5005719;28;20049;-63
2022/09/12 09:39:45;;;;;;;1.73;1.20;;;;;;;25.05;41.20;96492.47;5006185;28;20098;-62
2022/09/12 09:42:26;;;;;;;1.52;1.42;;;;;;;25.31;39.94;96482.28;5005766;28;20057;-66
2022/09/12 09:44:57;;;;;;;1.40;1.35;;;;;;;24.65;40.96;96350.34;5005912;28;20085;-68
2022/09/12 09:47:24;;;;;;;1.33;1.33;;;;;;;25.43;38.25;96476.88;5005188;28;20046;-69
2022/09/12 09:49:51;;;;;;;1.55;1.55;;;;;;;24.88;38.84;96443.13;5005399;28;20627;-68
2022/09/12 09:52:26;;;;;;;1.52;1.40;;;;;;;25.10;39.13;96489.00;5002689;28;20053;-64
2022/09/12 09:54:58;;;;;;;1.50;1.40;;;;;;;25.02;37.95;96448.09;5004245;28;20476;-63
2022/09/12 09:57:33;;;;;;;1.33;1.33;;;;;;;25.34;37.87;96474.13;5004364;28;20070;-63
2022/09/12 10:00:25;;;;;;;1.67;1.65;;;;;;;25.32;37.58;96477.41;5003698;28;20093;-62
2022/09/12 10:03:25;;;;;;;1.40;1.40;;;;;;;25.04;37.71;96479.56;5004434;28;20509;-61
2022/09/12 10:06:04;;;;;;;1.33;1.33;;;;;;;25.28;37.79;96466.22;5002711;28;20160;-64
2022/09/12 10:08:34;;;;;;;3.03;1.35;;;;;;;24.72;37.70;96428.56;5004697;28;20053;-67
2022/09/12 10:11:06;;;;;;;1.38;1.27;;;;;;;24.89;38.22;96475.88;5005481;28;20072;-65
2022/09/12 10:13:38;;;;;;;1.73;1.63;;;;;;;24.83;38.26;96474.94;5004608;28;20053;-63
2022/09/12 10:16:21;;;;;;;1.88;1.55;;;;;;;25.10;37.36;96480.50;4985588;28;20490;-62
2022/09/12 10:18:51;;;;;;;2.38;1.70;;;;;;;25.38;38.24;96474.72;4994593;28;20058;-65
2022/09/12 10:22:02;;;;;;;3.63;2.17;;;;;;;25.80;37.68;96476.16;5004777;28;20053;-60
2022/09/12 10:24:40;;;;;;;1.80;1.70;;;;;;;26.00;36.48;96467.03;5002782;28;20054;-61
2022/09/12 10:27:12;;;;;;;1.60;1.42;;;;;;;26.13;36.55;96473.25;5004732;28;20136;-60
2022/09/12 10:29:50;;;;;;;1.40;1.30;;;;;;;24.98;36.08;96305.78;5004282;28;20120;-59
2022/09/12 10:32:35;;;;;;;2.65;1.60;;;;;;;26.48;37.34;96459.94;5004555;28;20064;-63
2022/09/12 10:35:07;;;;;;;1.85;1.75;;;;;;;26.64;36.97;96470.84;5003735;28;20583;-63
2022/09/12 10:37:38;;;;;;;1.50;1.40;;;;;;;26.54;36.78;96469.38;5005204;28;20054;-64
2022/09/12 10:40:19;;;;;;;1.70;1.60;;;;;;;26.30;36.29;96431.75;5001845;28;20077;-63
2022/09/12 10:42:54;;;;;;;1.70;1.50;;;;;;;26.38;35.66;96469.84;4987569;28;20078;-61
2022/09/12 10:45:28;;;;;;;1.80;1.70;;;;;;;25.96;34.90;96418.16;4987667;28;20492;-63
2022/09/12 10:47:58;;;;;;;2.15;1.40;;;;;;;26.50;35.10;96485.81;4984009;28;20074;-66
2022/09/12 10:50:39;;;;;;;2.00;1.90;;;;;;;26.77;35.18;96471.34;5002006;28;20524;-62
2022/09/12 10:53:41;;;;;;;2.10;1.90;;;;;;;26.54;35.04;96441.72;5004256;28;20045;-66
2022/09/12 10:56:15;;;;;;;2.40;1.65;;;;;;;25.82;35.87;96401.88;5004319;28;20587;-62
2022/09/12 10:58:52;;;;;;;1.80;1.70;;;;;;;26.25;35.61;96470.13;5003793;28;20148;-67
2022/09/12 11:01:28;;;;;;;1.65;1.55;;;;;;;26.40;35.18;96470.13;5004913;28;20053;-70
2022/09/12 11:04:23;;;;;;;2.17;1.98;;;;;;;26.59;34.62;96460.13;5002417;28;20073;-63
2022/09/12 11:07:27;;;;;;;1.73;1.63;;;;;;;26.73;34.12;96462.22;5003594;28;20108;-62
2022/09/12 11:10:03;;;;;;;;;;;;;;;27.11;33.73;96459.22;5004556;28;20535;-63
2022/09/12 11:12:47;;;;;;;2.22;1.80;;;;;;;26.62;34.72;96470.53;5005279;28;19979;-64
2022/09/12 11:15:16;;;;;;;;;;;;;;;26.53;35.07;96456.41;5007590;28;20057;-63
2022/09/12 11:18:09;;;;;;;1.85;1.75;;;;;;;26.69;34.34;96455.97;5007521;28;20009;-64
2022/09/12 11:21:14;;;;;;;2.07;1.97;;;;;;;27.15;35.16;96451.28;4996375;28;20489;-62
2022/09/12 11:24:08;;;;;;;1.83;1.73;;;;;;;26.39;33.55;96377.66;5007565;28;20139;-69
2022/09/12 11:26:43;;;;;;;1.80;1.70;;;;;;;27.33;33.49;96451.06;5007668;28;20161;-62
2022/09/12 11:29:45;;;;;;;2.28;1.92;;;;;;;27.22;33.58;96456.53;5007912;28;20163;-61
2022/09/12 11:32:40;;;;;;;1.98;1.88;;;;;;;27.14;33.46;96449.69;4984851;28;20050;-63
2022/09/12 11:35:15;;;;;;;2.15;2.03;;;;;;;27.07;34.08;96444.44;4988540;28;20054;-64
2022/09/12 11:37:55;;;;;;;2.33;1.90;;;;;;;27.15;33.78;96445.59;4968124;28;20050;-67
2022/09/12 11:40:28;;;;;;;2.65;1.98;;;;;;;26.89;34.10;96362.22;5020675;28;20431;-62
2022/09/12 11:43:06;;;;;;;2.20;2.08;;;;;;;27.36;34.09;96410.22;5007854;28;20413;-61
2022/09/12 11:45:41;;;;;;;1.90;1.80;;;;;;;27.55;33.85;96411.53;5007428;28;20089;-66
2022/09/12 11:48:32;;;;;;;2.13;2.03;;;;;;;26.97;34.38;96332.09;5007635;28;20050;-67
2022/09/12 11:51:03;;;;;;;2.08;1.98;;;;;;;26.92;32.57;96314.97;5007444;28;20100;-66
2022/09/12 11:53:37;;;;;;;1.70;1.60;;;;;;;26.70;34.47;96397.84;5007338;28;20488;-68
2022/09/12 11:56:12;;;;;;;2.33;2.15;;;;;;;26.82;34.69;96433.72;5007413;28;20146;-67
2022/09/12 11:58:41;;;;;;;2.38;2.17;;;;;;;26.61;34.28;96398.72;5007741;28;20128;-68